createdAt,value
2023-05-13T00:01:39.166Z,9.60
2023-05-13T00:04:07.591Z,9.70
2023-05-13T00:06:36.518Z,9.70
2023-05-13T00:09:04.804Z,9.70
2023-05-13T00:11:32.927Z,9.70
2023-05-13T00:14:01.128Z,9.70
2023-05-13T00:16:29.667Z,9.70
2023-05-13T00:18:58.297Z,9.70
2023-05-13T00:21:26.326Z,9.70
2023-05-13T00:23:54.397Z,9.70
2023-05-13T00:26:22.727Z,9.70
2023-05-13T00:28:51.751Z,9.70
2023-05-13T00:31:20.343Z,9.60
2023-05-13T00:33:48.439Z,9.60
2023-05-13T00:36:16.754Z,9.60
2023-05-13T00:38:44.861Z,9.60
2023-05-13T00:41:12.965Z,9.60
2023-05-13T00:43:41.229Z,9.50
2023-05-13T00:46:09.282Z,9.60
2023-05-13T00:48:38.647Z,9.50
2023-05-13T00:51:06.812Z,9.50
2023-05-13T00:53:34.982Z,9.50
2023-05-13T00:56:02.963Z,9.50
2023-05-13T00:58:31.193Z,9.50
2023-05-13T01:01:15.470Z,9.50
2023-05-13T01:03:52.524Z,9.50
2023-05-13T01:06:33.139Z,9.40
2023-05-13T01:09:08.807Z,9.40
2023-05-13T01:11:38.868Z,9.40
2023-05-13T01:14:11.950Z,9.40
2023-05-13T01:16:52.734Z,9.40
2023-05-13T01:19:31.877Z,9.40
2023-05-13T01:21:59.872Z,9.30
2023-05-13T01:24:28.233Z,9.40
2023-05-13T01:26:57.488Z,9.40
2023-05-13T01:29:25.632Z,9.20
2023-05-13T01:31:54.825Z,9.40
2023-05-13T01:34:24.479Z,9.30
2023-05-13T01:36:52.625Z,9.40
2023-05-13T01:39:22.871Z,9.40
2023-05-13T01:41:53.430Z,9.40
2023-05-13T01:44:21.646Z,9.40
2023-05-13T01:46:50.966Z,9.50
2023-05-13T01:49:20.137Z,9.40
2023-05-13T01:51:48.027Z,9.40
2023-05-13T01:54:15.930Z,9.50
2023-05-13T01:56:49.306Z,9.40
2023-05-13T01:59:17.426Z,9.50
2023-05-13T02:01:46.192Z,9.50
2023-05-13T02:04:14.202Z,9.40
2023-05-13T02:06:43.144Z,9.40
2023-05-13T02:09:11.816Z,9.40
2023-05-13T02:11:41.509Z,9.40
2023-05-13T02:14:09.611Z,9.40
2023-05-13T02:16:37.813Z,9.30
2023-05-13T02:19:07.785Z,9.40
2023-05-13T02:21:35.936Z,9.40
2023-05-13T02:24:03.973Z,9.40
2023-05-13T02:26:32.052Z,9.40
2023-05-13T02:29:00.407Z,9.40
2023-05-13T02:31:28.615Z,9.40
2023-05-13T02:33:56.678Z,9.40
2023-05-13T02:36:24.844Z,9.30
2023-05-13T02:38:53.331Z,9.30
2023-05-13T02:41:21.456Z,9.30
2023-05-13T02:43:50.338Z,9.30
2023-05-13T02:46:19.424Z,9.30
2023-05-13T02:48:48.817Z,9.30
2023-05-13T02:51:16.826Z,9.30
2023-05-13T02:53:44.829Z,9.30
2023-05-13T02:56:16.621Z,9.30
2023-05-13T02:58:44.743Z,9.30
2023-05-13T03:01:12.846Z,9.30
2023-05-13T03:03:41.245Z,9.30
2023-05-13T03:06:09.331Z,9.30
2023-05-13T03:08:37.342Z,9.30
2023-05-13T03:11:05.486Z,9.30
2023-05-13T03:13:33.911Z,9.30
2023-05-13T03:16:01.859Z,9.40
2023-05-13T03:18:31.980Z,9.40
2023-05-13T03:21:01.054Z,9.40
2023-05-13T03:23:29.194Z,9.40
2023-05-13T03:25:58.801Z,9.40
2023-05-13T03:28:26.901Z,9.50
2023-05-13T03:30:55.001Z,9.50
2023-05-13T03:33:23.147Z,9.50
2023-05-13T03:35:51.583Z,9.50
2023-05-13T03:38:25.326Z,9.50
2023-05-13T03:40:54.276Z,9.60
2023-05-13T03:43:22.352Z,9.60
2023-05-13T03:45:56.157Z,9.70
2023-05-13T03:48:25.018Z,9.70
2023-05-13T03:50:54.129Z,9.70
2023-05-13T03:53:24.911Z,9.70
2023-05-13T03:55:54.791Z,9.70
2023-05-13T03:58:23.209Z,9.80
2023-05-13T04:00:51.238Z,9.80
2023-05-13T04:03:19.680Z,9.80
2023-05-13T04:05:47.798Z,9.90
2023-05-13T04:08:16.393Z,9.90
2023-05-13T04:10:44.513Z,10.00
2023-05-13T04:13:12.543Z,10.00
2023-05-13T04:15:40.522Z,10.10
2023-05-13T04:18:08.717Z,10.20
2023-05-13T04:20:40.192Z,10.30
2023-05-13T04:23:08.348Z,10.40
2023-05-13T04:25:37.616Z,10.60
2023-05-13T04:28:05.951Z,10.70
2023-05-13T04:30:39.297Z,10.80
2023-05-13T04:33:08.150Z,10.80
2023-05-13T04:35:37.881Z,10.90
2023-05-13T04:38:06.320Z,10.90
2023-05-13T04:40:34.464Z,11.00
2023-05-13T04:43:08.036Z,11.00
2023-05-13T04:45:43.560Z,11.00
2023-05-13T04:48:14.208Z,11.00
2023-05-13T04:50:47.582Z,11.10
2023-05-13T04:53:17.443Z,11.30
2023-05-13T04:55:47.445Z,11.40
2023-05-13T04:58:15.515Z,11.60
2023-05-13T05:00:43.975Z,11.70
2023-05-13T05:03:12.044Z,12.00
2023-05-13T05:05:40.251Z,12.30
2023-05-13T05:08:10.050Z,12.90
2023-05-13T05:10:38.927Z,13.50
2023-05-13T05:13:09.620Z,13.80
2023-05-13T05:15:37.662Z,14.00
2023-05-13T05:18:07.567Z,14.40
2023-05-13T05:20:38.719Z,14.50
2023-05-13T05:23:11.059Z,14.50
2023-05-13T05:25:39.638Z,14.50
2023-05-13T05:28:08.400Z,14.40
2023-05-13T05:30:41.494Z,14.60
2023-05-13T05:33:18.764Z,14.70
2023-05-13T05:35:47.138Z,14.80
2023-05-13T05:38:17.507Z,14.90
2023-05-13T05:40:47.170Z,15.00
2023-05-13T05:43:16.875Z,15.30
2023-05-13T05:45:45.018Z,15.30
2023-05-13T05:48:17.429Z,15.30
2023-05-13T05:50:45.876Z,15.30
2023-05-13T05:53:17.616Z,15.40
2023-05-13T05:55:46.796Z,15.40
2023-05-13T05:58:17.288Z,15.60
2023-05-13T06:00:45.558Z,15.90
2023-05-13T06:03:13.925Z,16.10
2023-05-13T06:05:42.682Z,16.30
2023-05-13T06:08:10.733Z,16.60
2023-05-13T06:10:39.119Z,16.70
2023-05-13T06:13:07.177Z,17.00
2023-05-13T06:15:36.348Z,17.40
2023-05-13T06:18:06.022Z,17.90
2023-05-13T06:20:36.740Z,18.20
2023-05-13T06:23:04.928Z,18.70
2023-05-13T06:25:32.976Z,19.30
2023-05-13T06:28:03.011Z,19.60
2023-05-13T06:30:31.649Z,19.60
2023-05-13T06:33:02.070Z,19.60
2023-05-13T06:35:31.720Z,19.50
2023-05-13T06:38:03.267Z,19.30
2023-05-13T06:40:31.527Z,19.20
2023-05-13T06:43:02.858Z,19.30
2023-05-13T06:45:32.988Z,19.40
2023-05-13T06:48:01.587Z,19.60
2023-05-13T06:50:29.778Z,20.20
2023-05-13T06:52:59.163Z,20.00
2023-05-13T06:55:27.613Z,19.80
2023-05-13T06:57:55.627Z,19.60
2023-05-13T07:00:24.046Z,19.90
2023-05-13T07:02:52.259Z,20.30
2023-05-13T07:05:20.273Z,20.60
2023-05-13T07:07:48.279Z,20.60
2023-05-13T07:10:16.235Z,20.70
2023-05-13T07:12:44.423Z,20.80
2023-05-13T07:15:12.481Z,20.70
2023-05-13T07:17:40.607Z,20.50
2023-05-13T07:20:09.350Z,20.50
2023-05-13T07:22:37.572Z,20.70
2023-05-13T07:25:05.669Z,20.90
2023-05-13T07:27:33.852Z,20.70
2023-05-13T07:30:02.791Z,20.60
2023-05-13T07:32:31.274Z,20.70
2023-05-13T07:34:59.364Z,20.80
2023-05-13T07:37:27.399Z,21.00
2023-05-13T07:39:55.471Z,21.40
2023-05-13T07:42:23.589Z,22.20
2023-05-13T07:44:51.537Z,23.00
2023-05-13T07:47:19.545Z,23.60
2023-05-13T07:49:47.689Z,23.30
2023-05-13T07:52:15.776Z,23.50
2023-05-13T07:54:46.222Z,24.40
2023-05-13T07:57:17.305Z,24.70
2023-05-13T07:59:45.760Z,24.60
2023-05-13T08:02:13.773Z,24.40
2023-05-13T08:04:42.065Z,24.80
2023-05-13T08:07:10.758Z,26.70
2023-05-13T08:09:38.691Z,27.60
2023-05-13T08:12:07.005Z,26.80
2023-05-13T08:14:35.105Z,26.10
2023-05-13T08:17:04.772Z,25.10
2023-05-13T08:19:32.702Z,24.60
2023-05-13T08:22:00.721Z,24.50
2023-05-13T08:24:28.869Z,24.50
2023-05-13T08:26:56.924Z,24.50
2023-05-13T08:29:25.065Z,24.80
2023-05-13T08:31:54.155Z,25.20
2023-05-13T08:34:22.377Z,24.80
2023-05-13T08:36:50.398Z,25.50
2023-05-13T08:39:18.570Z,27.50
2023-05-13T08:41:46.832Z,28.50
2023-05-13T08:44:15.352Z,29.40
2023-05-13T08:46:49.053Z,29.90
2023-05-13T08:49:17.143Z,30.20
2023-05-13T08:51:45.171Z,30.60
2023-05-13T08:54:13.259Z,30.40
2023-05-13T08:56:41.423Z,30.20
2023-05-13T08:59:09.484Z,30.50
2023-05-13T09:01:38.103Z,31.00
2023-05-13T09:04:07.290Z,31.50
2023-05-13T09:06:35.401Z,31.70
2023-05-13T09:09:03.671Z,32.10
2023-05-13T09:11:35.229Z,32.40
2023-05-13T09:14:07.806Z,31.80
2023-05-13T09:16:36.906Z,32.40
2023-05-13T09:19:06.692Z,32.80
2023-05-13T09:21:38.151Z,32.90
2023-05-13T09:24:11.466Z,33.20
2023-05-13T09:26:40.854Z,33.40
2023-05-13T09:29:16.670Z,34.40
2023-05-13T09:31:45.342Z,33.00
2023-05-13T09:34:13.487Z,31.90
2023-05-13T09:36:42.309Z,32.00
2023-05-13T09:39:11.981Z,31.50
2023-05-13T09:41:40.195Z,30.40
2023-05-13T09:44:10.740Z,31.60
2023-05-13T09:46:38.748Z,33.10
2023-05-13T09:49:07.103Z,31.60
2023-05-13T09:51:35.192Z,30.10
2023-05-13T09:54:03.851Z,29.00
2023-05-13T09:56:33.538Z,29.10
2023-05-13T09:59:02.582Z,29.20
2023-05-13T10:01:31.185Z,28.30
2023-05-13T10:04:00.093Z,28.20
2023-05-13T10:06:28.755Z,28.50
2023-05-13T10:08:58.811Z,28.70
2023-05-13T10:11:27.707Z,30.50
2023-05-13T10:14:03.648Z,32.60
2023-05-13T10:16:32.705Z,32.10
2023-05-13T10:19:01.267Z,31.70
2023-05-13T10:21:29.341Z,32.00
2023-05-13T10:23:57.565Z,33.00
2023-05-13T10:26:25.843Z,34.70
2023-05-13T10:28:55.237Z,35.80
2023-05-13T10:31:23.979Z,36.60
2023-05-13T10:33:53.488Z,36.00
2023-05-13T10:36:21.696Z,35.50
2023-05-13T10:39:08.136Z,35.30
2023-05-13T10:41:51.520Z,34.50
2023-05-13T10:44:23.382Z,35.20
2023-05-13T10:46:51.609Z,35.20
2023-05-13T10:49:19.717Z,33.40
2023-05-13T10:51:48.773Z,32.50
2023-05-13T10:54:25.265Z,32.10
2023-05-13T10:56:57.995Z,31.80
2023-05-13T10:59:26.202Z,31.00
2023-05-13T11:01:54.176Z,30.30
2023-05-13T11:04:22.757Z,30.70
2023-05-13T11:06:51.150Z,31.20
2023-05-13T11:09:22.202Z,32.80
2023-05-13T11:11:54.456Z,34.20
2023-05-13T11:14:23.293Z,35.10
2023-05-13T11:16:55.103Z,34.80
2023-05-13T11:19:24.282Z,33.30
2023-05-13T11:21:55.950Z,32.20
2023-05-13T11:24:24.670Z,31.20
2023-05-13T11:26:54.712Z,30.30
2023-05-13T11:29:33.061Z,29.70
2023-05-13T11:32:02.022Z,29.30
2023-05-13T11:34:30.307Z,29.60
2023-05-13T11:37:04.424Z,29.10
2023-05-13T11:39:32.935Z,28.80
2023-05-13T11:42:05.564Z,28.70
2023-05-13T11:44:34.195Z,28.20
2023-05-13T11:47:03.356Z,28.30
2023-05-13T11:49:37.494Z,30.00
2023-05-13T11:52:18.809Z,31.80
2023-05-13T11:54:49.225Z,32.90
2023-05-13T11:57:21.697Z,33.70
2023-05-13T11:59:50.498Z,33.50
2023-05-13T12:02:21.210Z,32.60
2023-05-13T12:04:49.536Z,31.40
2023-05-13T12:07:22.007Z,30.90
2023-05-13T12:09:50.777Z,30.00
2023-05-13T12:12:19.192Z,29.90
2023-05-13T12:14:53.465Z,31.30
2023-05-13T12:17:22.024Z,32.00
2023-05-13T12:20:08.799Z,31.90
2023-05-13T12:22:38.116Z,32.20
2023-05-13T12:25:24.849Z,33.60
2023-05-13T12:27:53.509Z,34.50
2023-05-13T12:30:21.617Z,34.70
2023-05-13T12:32:49.784Z,34.70
2023-05-13T12:35:17.838Z,34.50
2023-05-13T12:37:45.850Z,35.10
2023-05-13T12:40:14.145Z,34.90
2023-05-13T12:42:45.809Z,34.70
2023-05-13T12:45:14.206Z,34.50
2023-05-13T12:47:51.714Z,34.20
2023-05-13T12:50:19.850Z,33.50
2023-05-13T12:52:47.892Z,33.80
2023-05-13T12:55:16.075Z,34.60
2023-05-13T12:57:44.466Z,34.90
2023-05-13T13:00:15.768Z,35.40
2023-05-13T13:02:43.842Z,35.30
2023-05-13T13:05:12.650Z,35.40
2023-05-13T13:07:42.617Z,35.50
2023-05-13T13:10:11.925Z,35.00
2023-05-13T13:12:40.118Z,33.70
2023-05-13T13:15:08.896Z,32.20
2023-05-13T13:17:37.168Z,31.00
2023-05-13T13:20:05.936Z,30.10
2023-05-13T13:22:34.937Z,29.40
2023-05-13T13:25:03.913Z,28.70
2023-05-13T13:27:32.552Z,28.20
2023-05-13T13:30:00.538Z,27.50
2023-05-13T13:32:28.672Z,27.10
2023-05-13T13:34:58.559Z,27.20
2023-05-13T13:37:26.517Z,27.10
2023-05-13T13:39:54.663Z,26.80
2023-05-13T13:42:26.703Z,26.40
2023-05-13T13:44:59.052Z,26.10
2023-05-13T13:47:28.389Z,25.70
2023-05-13T13:49:56.428Z,25.40
2023-05-13T13:52:27.134Z,25.10
2023-05-13T13:54:55.446Z,24.80
2023-05-13T13:57:23.457Z,24.70
2023-05-13T13:59:51.459Z,24.60
2023-05-13T14:02:19.480Z,24.30
2023-05-13T14:04:47.527Z,24.20
2023-05-13T14:07:16.003Z,23.70
2023-05-13T14:09:44.059Z,23.50
2023-05-13T14:12:12.015Z,23.50
2023-05-13T14:14:40.062Z,23.60
2023-05-13T14:17:08.138Z,23.30
2023-05-13T14:19:36.214Z,23.50
2023-05-13T14:22:04.205Z,23.10
2023-05-13T14:24:32.756Z,22.90
2023-05-13T14:27:00.858Z,22.70
2023-05-13T14:29:28.953Z,22.50
2023-05-13T14:31:57.544Z,22.50
2023-05-13T14:34:25.931Z,22.00
2023-05-13T14:36:53.942Z,21.80
2023-05-13T14:39:22.395Z,21.80
2023-05-13T14:41:50.360Z,22.10
2023-05-13T14:44:18.506Z,22.30
2023-05-13T14:46:46.428Z,22.70
2023-05-13T14:49:14.628Z,23.20
2023-05-13T14:51:42.562Z,23.30
2023-05-13T14:54:10.711Z,22.80
2023-05-13T14:56:38.801Z,22.80
2023-05-13T14:59:06.873Z,22.90
2023-05-13T15:01:35.163Z,22.90
2023-05-13T15:04:03.282Z,23.30
2023-05-13T15:06:31.409Z,23.60
2023-05-13T15:09:00.460Z,24.00
2023-05-13T15:11:28.821Z,24.00
2023-05-13T15:13:57.036Z,24.10
2023-05-13T15:16:24.991Z,24.20
2023-05-13T15:18:53.250Z,23.60
2023-05-13T15:21:21.378Z,23.00
2023-05-13T15:23:49.356Z,22.60
2023-05-13T15:26:17.429Z,22.40
2023-05-13T15:28:45.478Z,22.50
2023-05-13T15:31:13.531Z,22.70
2023-05-13T15:33:42.777Z,22.60
2023-05-13T15:36:12.687Z,22.60
2023-05-13T15:38:40.559Z,22.60
2023-05-13T15:41:08.639Z,22.60
2023-05-13T15:43:36.655Z,22.60
2023-05-13T15:46:05.059Z,22.40
2023-05-13T15:48:33.196Z,22.20
2023-05-13T15:51:01.466Z,22.00
2023-05-13T15:53:29.605Z,21.90
2023-05-13T15:55:57.595Z,21.90
2023-05-13T15:58:25.639Z,22.20
2023-05-13T16:00:53.740Z,22.30
2023-05-13T16:03:21.828Z,22.00
2023-05-13T16:05:50.068Z,21.50
2023-05-13T16:08:18.089Z,21.50
2023-05-13T16:10:46.212Z,21.20
2023-05-13T16:13:14.114Z,20.90
2023-05-13T16:15:42.335Z,20.80
2023-05-13T16:18:10.390Z,20.60
2023-05-13T16:20:38.494Z,20.50
2023-05-13T16:23:06.402Z,20.40
2023-05-13T16:25:34.434Z,20.40
2023-05-13T16:28:02.348Z,20.30
2023-05-13T16:30:30.576Z,20.10
2023-05-13T16:32:58.773Z,20.00
2023-05-13T16:35:27.157Z,19.80
2023-05-13T16:37:55.300Z,19.70
2023-05-13T16:40:23.514Z,19.60
2023-05-13T16:42:51.926Z,19.50
2023-05-13T16:45:20.218Z,19.30
2023-05-13T16:47:48.724Z,19.30
2023-05-13T16:50:16.651Z,19.20
2023-05-13T16:52:44.743Z,19.10
2023-05-13T16:55:13.461Z,18.90
2023-05-13T16:57:41.555Z,18.70
2023-05-13T17:00:09.933Z,18.60
2023-05-13T17:02:37.942Z,18.50
2023-05-13T17:05:06.636Z,18.30
2023-05-13T17:07:34.677Z,18.20
2023-05-13T17:10:02.699Z,18.00
2023-05-13T17:12:30.710Z,18.00
2023-05-13T17:14:58.672Z,17.90
2023-05-13T17:17:26.742Z,17.90
2023-05-13T17:19:55.046Z,17.70
2023-05-13T17:22:23.079Z,17.70
2023-05-13T17:24:51.082Z,17.60
2023-05-13T17:27:19.158Z,17.50
2023-05-13T17:29:47.271Z,17.50
2023-05-13T17:32:15.364Z,17.40
2023-05-13T17:34:43.451Z,17.30
2023-05-13T17:37:11.370Z,17.20
2023-05-13T17:39:39.416Z,17.10
2023-05-13T17:42:07.447Z,17.00
2023-05-13T17:44:35.485Z,17.00
2023-05-13T17:47:03.707Z,16.90
2023-05-13T17:49:31.796Z,16.90
2023-05-13T17:51:59.959Z,16.80
2023-05-13T17:54:27.960Z,16.70
2023-05-13T17:56:55.935Z,16.60
2023-05-13T17:59:23.925Z,16.60
2023-05-13T18:01:51.909Z,16.60
2023-05-13T18:04:20.135Z,16.50
2023-05-13T18:06:48.173Z,16.40
2023-05-13T18:09:16.192Z,16.30
2023-05-13T18:11:44.692Z,16.30
2023-05-13T18:14:12.680Z,16.30
2023-05-13T18:16:40.697Z,16.30
2023-05-13T18:19:08.718Z,16.20
2023-05-13T18:21:36.863Z,16.30
2023-05-13T18:24:04.963Z,16.20
2023-05-13T18:26:32.912Z,16.20
2023-05-13T18:29:01.143Z,16.20
2023-05-13T18:31:29.117Z,16.20
2023-05-13T18:33:57.172Z,16.10
2023-05-13T18:36:25.249Z,16.10
2023-05-13T18:38:53.174Z,16.10
2023-05-13T18:41:23.559Z,16.00
2023-05-13T18:43:52.002Z,15.90
2023-05-13T18:46:20.426Z,15.90
2023-05-13T18:48:48.537Z,15.80
2023-05-13T18:51:16.945Z,15.80
2023-05-13T18:53:45.769Z,15.70
2023-05-13T18:56:13.765Z,15.70
2023-05-13T18:58:42.105Z,15.70
2023-05-13T19:01:10.113Z,15.70
2023-05-13T19:03:39.590Z,15.60
2023-05-13T19:06:07.921Z,15.50
2023-05-13T19:08:36.038Z,15.40
2023-05-13T19:11:04.025Z,15.40
2023-05-13T19:13:45.653Z,15.40
2023-05-13T19:16:14.708Z,15.30
2023-05-13T19:18:43.044Z,15.30
2023-05-13T19:21:11.423Z,15.20
2023-05-13T19:23:39.381Z,15.20
2023-05-13T19:26:07.724Z,15.10
2023-05-13T19:28:37.136Z,15.10
2023-05-13T19:31:07.843Z,15.10
2023-05-13T19:33:37.453Z,15.00
2023-05-13T19:36:06.036Z,15.00
2023-05-13T19:38:34.456Z,14.90
2023-05-13T19:41:02.538Z,14.90
2023-05-13T19:43:30.546Z,14.90
2023-05-13T19:45:58.738Z,14.80
2023-05-13T19:48:28.381Z,14.80
2023-05-13T19:50:58.717Z,14.80
2023-05-13T19:53:26.996Z,14.80
2023-05-13T19:55:56.054Z,14.80
2023-05-13T19:58:24.099Z,14.70
2023-05-13T20:00:52.190Z,14.70
2023-05-13T20:03:20.348Z,14.60
2023-05-13T20:05:51.756Z,14.60
2023-05-13T20:08:20.991Z,14.50
2023-05-13T20:10:49.073Z,14.50
2023-05-13T20:13:17.113Z,14.40
2023-05-13T20:15:45.609Z,14.40
2023-05-13T20:18:13.705Z,14.40
2023-05-13T20:20:42.053Z,14.40
2023-05-13T20:23:10.153Z,14.40
2023-05-13T20:25:38.284Z,14.30
2023-05-13T20:28:06.425Z,14.30
2023-05-13T20:30:34.496Z,14.30
2023-05-13T20:33:02.624Z,14.30
2023-05-13T20:35:30.736Z,14.20
2023-05-13T20:37:59.038Z,14.20
2023-05-13T20:40:27.130Z,14.20
2023-05-13T20:42:56.379Z,14.20
2023-05-13T20:45:24.377Z,14.10
2023-05-13T20:47:52.296Z,14.00
2023-05-13T20:50:20.324Z,14.00
2023-05-13T20:52:48.245Z,14.00
2023-05-13T20:55:16.436Z,14.00
2023-05-13T20:57:44.660Z,14.00
2023-05-13T21:00:13.086Z,13.90
2023-05-13T21:02:41.441Z,13.90
2023-05-13T21:05:09.525Z,13.90
2023-05-13T21:07:37.659Z,13.80
2023-05-13T21:10:05.939Z,13.70
2023-05-13T21:12:34.086Z,13.70
2023-05-13T21:15:02.203Z,13.70
2023-05-13T21:17:30.453Z,13.60
2023-05-13T21:19:58.884Z,13.50
2023-05-13T21:22:26.964Z,13.50
2023-05-13T21:24:55.001Z,13.40
2023-05-13T21:27:22.963Z,13.40
2023-05-13T21:29:51.023Z,13.30
2023-05-13T21:32:18.965Z,13.20
2023-05-13T21:34:46.934Z,13.20
2023-05-13T21:37:15.161Z,13.20
2023-05-13T21:39:43.198Z,13.10
2023-05-13T21:42:11.293Z,13.10
2023-05-13T21:44:39.290Z,13.10
2023-05-13T21:47:07.312Z,13.00
2023-05-13T21:49:35.334Z,13.00
2023-05-13T21:52:03.272Z,13.00
2023-05-13T21:54:31.160Z,12.90
2023-05-13T21:56:59.167Z,12.90
2023-05-13T21:59:29.580Z,12.90
2023-05-13T22:01:57.684Z,12.80
2023-05-13T22:04:26.813Z,12.80
2023-05-13T22:06:55.084Z,12.70
2023-05-13T22:09:23.246Z,12.70
2023-05-13T22:11:51.607Z,12.70
2023-05-13T22:14:19.742Z,12.60
2023-05-13T22:16:52.052Z,12.60
2023-05-13T22:19:29.595Z,12.60
2023-05-13T22:21:57.566Z,12.60
2023-05-13T22:24:25.636Z,12.60
2023-05-13T22:26:53.643Z,12.60
2023-05-13T22:29:21.984Z,12.50
2023-05-13T22:31:49.953Z,12.50
2023-05-13T22:34:17.976Z,12.50
2023-05-13T22:36:46.061Z,12.50
2023-05-13T22:39:14.886Z,12.60
2023-05-13T22:41:43.037Z,12.60
2023-05-13T22:44:11.612Z,12.60
2023-05-13T22:46:39.726Z,12.60
2023-05-13T22:49:07.791Z,12.60
2023-05-13T22:51:35.692Z,12.60
2023-05-13T22:54:03.936Z,12.60
2023-05-13T22:56:31.893Z,12.60
2023-05-13T22:58:59.995Z,12.60
2023-05-13T23:01:27.948Z,12.60
2023-05-13T23:03:56.190Z,12.70
2023-05-13T23:06:24.108Z,12.70
2023-05-13T23:08:52.229Z,12.70
2023-05-13T23:11:20.187Z,12.70
2023-05-13T23:13:48.469Z,12.70
2023-05-13T23:16:16.499Z,12.70
2023-05-13T23:18:44.729Z,12.70
2023-05-13T23:21:12.662Z,12.50
2023-05-13T23:23:40.798Z,12.50
2023-05-13T23:26:08.838Z,12.50
2023-05-13T23:28:36.885Z,12.40
2023-05-13T23:31:05.031Z,12.40
2023-05-13T23:33:33.313Z,12.40
2023-05-13T23:36:01.395Z,12.40
2023-05-13T23:38:29.532Z,12.40
2023-05-13T23:40:57.759Z,12.40
2023-05-13T23:43:25.659Z,12.40
2023-05-13T23:45:53.741Z,12.30
2023-05-13T23:48:21.814Z,12.30
2023-05-13T23:50:49.849Z,12.30
2023-05-13T23:53:17.949Z,12.30
2023-05-13T23:55:46.047Z,12.30
2023-05-13T23:58:14.253Z,12.30
